sensor_id;sensor_type;location;lat;lon;timestamp;P1;durP1;ratioP1;P2;durP2;ratioP2
5543;SDS011;2795;47.652;13.128;2022-12-07T00:01:44;11.37;;;5.30;;
5543;SDS011;2795;47.652;13.128;2022-12-07T00:04:12;19.07;;;7.33;;
5543;SDS011;2795;47.652;13.128;2022-12-07T00:06:42;16.73;;;6.50;;
5543;SDS011;2795;47.652;13.128;2022-12-07T00:09:11;15.60;;;6.43;;
5543;SDS011;2795;47.652;13.128;2022-12-07T00:11:40;12.13;;;5.57;;
5543;SDS011;2795;47.652;13.128;2022-12-07T00:14:09;13.93;;;6.33;;
5543;SDS011;2795;47.652;13.128;2022-12-07T00:16:38;12.67;;;6.33;;
5543;SDS011;2795;47.652;13.128;2022-12-07T00:19:05;12.20;;;5.70;;
5543;SDS011;2795;47.652;13.128;2022-12-07T00:21:34;13.60;;;7.13;;
5543;SDS011;2795;47.652;13.128;2022-12-07T00:24:02;16.73;;;7.03;;
5543;SDS011;2795;47.652;13.128;2022-12-07T00:26:31;16.30;;;6.63;;
5543;SDS011;2795;47.652;13.128;2022-12-07T00:29:03;21.40;;;6.90;;
5543;SDS011;2795;47.652;13.128;2022-12-07T00:31:33;11.27;;;5.50;;
5543;SDS011;2795;47.652;13.128;2022-12-07T00:34:09;15.20;;;6.40;;
5543;SDS011;2795;47.652;13.128;2022-12-07T00:36:39;12.93;;;6.30;;
5543;SDS011;2795;47.652;13.128;2022-12-07T00:39:05;11.60;;;6.20;;
5543;SDS011;2795;47.652;13.128;2022-12-07T00:41:32;11.83;;;6.03;;
5543;SDS011;2795;47.652;13.128;2022-12-07T00:43:58;16.50;;;6.60;;
5543;SDS011;2795;47.652;13.128;2022-12-07T00:46:25;11.47;;;6.23;;
5543;SDS011;2795;47.652;13.128;2022-12-07T00:48:53;11.07;;;6.00;;
5543;SDS011;2795;47.652;13.128;2022-12-07T00:51:20;12.53;;;6.20;;
5543;SDS011;2795;47.652;13.128;2022-12-07T00:53:49;14.50;;;6.60;;
5543;SDS011;2795;47.652;13.128;2022-12-07T00:56:16;14.20;;;6.00;;
5543;SDS011;2795;47.652;13.128;2022-12-07T00:58:51;15.13;;;7.40;;
5543;SDS011;2795;47.652;13.128;2022-12-07T01:01:19;13.53;;;6.67;;
5543;SDS011;2795;47.652;13.128;2022-12-07T01:03:46;29.57;;;8.60;;
5543;SDS011;2795;47.652;13.128;2022-12-07T01:06:16;16.57;;;6.80;;
5543;SDS011;2795;47.652;13.128;2022-12-07T01:08:44;15.77;;;6.47;;
5543;SDS011;2795;47.652;13.128;2022-12-07T01:11:12;15.00;;;7.17;;
5543;SDS011;2795;47.652;13.128;2022-12-07T01:13:40;10.77;;;5.97;;
5543;SDS011;2795;47.652;13.128;2022-12-07T01:16:09;15.83;;;7.17;;
5543;SDS011;2795;47.652;13.128;2022-12-07T01:18:38;14.00;;;6.50;;
5543;SDS011;2795;47.652;13.128;2022-12-07T01:21:13;16.43;;;6.57;;
5543;SDS011;2795;47.652;13.128;2022-12-07T01:23:42;16.07;;;6.17;;
5543;SDS011;2795;47.652;13.128;2022-12-07T01:26:13;18.13;;;6.57;;
5543;SDS011;2795;47.652;13.128;2022-12-07T01:28:41;13.50;;;6.10;;
5543;SDS011;2795;47.652;13.128;2022-12-07T01:31:12;10.33;;;5.30;;
5543;SDS011;2795;47.652;13.128;2022-12-07T01:33:42;10.00;;;5.70;;
5543;SDS011;2795;47.652;13.128;2022-12-07T01:38:41;19.63;;;7.07;;
5543;SDS011;2795;47.652;13.128;2022-12-07T01:41:08;18.77;;;6.90;;
5543;SDS011;2795;47.652;13.128;2022-12-07T01:43:35;11.70;;;6.10;;
5543;SDS011;2795;47.652;13.128;2022-12-07T01:46:03;16.33;;;6.17;;
5543;SDS011;2795;47.652;13.128;2022-12-07T01:48:32;16.30;;;6.40;;
5543;SDS011;2795;47.652;13.128;2022-12-07T01:51:08;13.77;;;6.20;;
5543;SDS011;2795;47.652;13.128;2022-12-07T01:53:38;15.20;;;6.77;;
5543;SDS011;2795;47.652;13.128;2022-12-07T01:56:06;15.03;;;6.10;;
5543;SDS011;2795;47.652;13.128;2022-12-07T01:58:34;12.70;;;5.70;;
5543;SDS011;2795;47.652;13.128;2022-12-07T02:01:01;20.53;;;6.97;;
5543;SDS011;2795;47.652;13.128;2022-12-07T02:03:32;14.73;;;5.97;;
5543;SDS011;2795;47.652;13.128;2022-12-07T02:06:01;17.63;;;6.60;;
5543;SDS011;2795;47.652;13.128;2022-12-07T02:08:28;16.97;;;6.10;;
5543;SDS011;2795;47.652;13.128;2022-12-07T02:10:55;19.53;;;6.47;;
5543;SDS011;2795;47.652;13.128;2022-12-07T02:13:22;12.33;;;6.20;;
5543;SDS011;2795;47.652;13.128;2022-12-07T02:21:21;12.40;;;5.80;;
5543;SDS011;2795;47.652;13.128;2022-12-07T02:27:15;14.00;;;7.27;;
5543;SDS011;2795;47.652;13.128;2022-12-07T02:30:04;15.50;;;6.67;;
5543;SDS011;2795;47.652;13.128;2022-12-07T02:35:39;13.53;;;6.47;;
5543;SDS011;2795;47.652;13.128;2022-12-07T02:38:11;19.03;;;6.77;;
5543;SDS011;2795;47.652;13.128;2022-12-07T02:40:43;10.47;;;6.00;;
5543;SDS011;2795;47.652;13.128;2022-12-07T02:43:24;19.43;;;6.70;;
5543;SDS011;2795;47.652;13.128;2022-12-07T02:45:53;14.00;;;6.80;;
5543;SDS011;2795;47.652;13.128;2022-12-07T02:48:22;24.73;;;7.50;;
5543;SDS011;2795;47.652;13.128;2022-12-07T02:50:50;14.27;;;5.80;;
5543;SDS011;2795;47.652;13.128;2022-12-07T02:53:34;16.93;;;7.20;;
5543;SDS011;2795;47.652;13.128;2022-12-07T02:56:05;11.93;;;6.13;;
5543;SDS011;2795;47.652;13.128;2022-12-07T02:58:45;16.97;;;6.43;;
5543;SDS011;2795;47.652;13.128;2022-12-07T03:06:56;15.90;;;6.67;;
5543;SDS011;2795;47.652;13.128;2022-12-07T03:09:28;13.37;;;6.43;;
5543;SDS011;2795;47.652;13.128;2022-12-07T03:12:12;16.50;;;6.43;;
5543;SDS011;2795;47.652;13.128;2022-12-07T03:14:45;10.87;;;5.63;;
5543;SDS011;2795;47.652;13.128;2022-12-07T03:17:14;11.67;;;5.97;;
5543;SDS011;2795;47.652;13.128;2022-12-07T03:19:44;13.43;;;6.60;;
5543;SDS011;2795;47.652;13.128;2022-12-07T03:22:12;17.73;;;6.90;;
5543;SDS011;2795;47.652;13.128;2022-12-07T03:24:45;14.53;;;7.00;;
5543;SDS011;2795;47.652;13.128;2022-12-07T03:27:18;21.33;;;7.37;;
5543;SDS011;2795;47.652;13.128;2022-12-07T03:29:48;16.17;;;6.20;;
5543;SDS011;2795;47.652;13.128;2022-12-07T03:32:27;13.33;;;6.10;;
5543;SDS011;2795;47.652;13.128;2022-12-07T03:37:57;24.87;;;7.60;;
5543;SDS011;2795;47.652;13.128;2022-12-07T03:40:44;13.63;;;6.27;;
5543;SDS011;2795;47.652;13.128;2022-12-07T03:43:16;17.73;;;6.50;;
5543;SDS011;2795;47.652;13.128;2022-12-07T03:45:52;7.47;;;5.00;;
5543;SDS011;2795;47.652;13.128;2022-12-07T03:48:51;13.97;;;5.80;;
5543;SDS011;2795;47.652;13.128;2022-12-07T03:51:28;10.27;;;6.10;;
5543;SDS011;2795;47.652;13.128;2022-12-07T03:54:07;17.93;;;7.07;;
5543;SDS011;2795;47.652;13.128;2022-12-07T03:56:45;14.83;;;6.03;;
5543;SDS011;2795;47.652;13.128;2022-12-07T03:59:12;15.17;;;6.70;;
5543;SDS011;2795;47.652;13.128;2022-12-07T04:01:41;15.30;;;6.60;;
5543;SDS011;2795;47.652;13.128;2022-12-07T04:04:11;12.73;;;6.20;;
5543;SDS011;2795;47.652;13.128;2022-12-07T04:06:38;14.40;;;6.40;;
5543;SDS011;2795;47.652;13.128;2022-12-07T04:09:05;16.60;;;7.10;;
5543;SDS011;2795;47.652;13.128;2022-12-07T04:11:31;15.03;;;6.43;;
5543;SDS011;2795;47.652;13.128;2022-12-07T04:13:58;16.67;;;5.93;;
5543;SDS011;2795;47.652;13.128;2022-12-07T04:16:53;17.20;;;7.10;;
5543;SDS011;2795;47.652;13.128;2022-12-07T04:19:25;13.77;;;7.10;;
5543;SDS011;2795;47.652;13.128;2022-12-07T04:21:53;22.40;;;7.87;;
5543;SDS011;2795;47.652;13.128;2022-12-07T04:24:20;14.90;;;6.77;;
5543;SDS011;2795;47.652;13.128;2022-12-07T04:26:46;15.80;;;7.60;;
5543;SDS011;2795;47.652;13.128;2022-12-07T04:29:14;17.17;;;6.37;;
5543;SDS011;2795;47.652;13.128;2022-12-07T04:31:40;15.10;;;6.77;;
5543;SDS011;2795;47.652;13.128;2022-12-07T04:34:07;13.07;;;6.97;;
5543;SDS011;2795;47.652;13.128;2022-12-07T04:36:34;18.33;;;6.60;;
5543;SDS011;2795;47.652;13.128;2022-12-07T04:39:02;25.30;;;7.73;;
5543;SDS011;2795;47.652;13.128;2022-12-07T04:41:29;19.17;;;7.70;;
5543;SDS011;2795;47.652;13.128;2022-12-07T04:43:56;17.33;;;8.90;;
5543;SDS011;2795;47.652;13.128;2022-12-07T04:46:24;16.77;;;7.47;;
5543;SDS011;2795;47.652;13.128;2022-12-07T04:48:52;15.73;;;8.57;;
5543;SDS011;2795;47.652;13.128;2022-12-07T04:51:24;15.37;;;7.77;;
5543;SDS011;2795;47.652;13.128;2022-12-07T04:53:52;17.60;;;7.50;;
5543;SDS011;2795;47.652;13.128;2022-12-07T04:56:19;23.03;;;9.30;;
5543;SDS011;2795;47.652;13.128;2022-12-07T04:58:46;16.33;;;8.40;;
5543;SDS011;2795;47.652;13.128;2022-12-07T05:01:14;23.23;;;8.63;;
5543;SDS011;2795;47.652;13.128;2022-12-07T05:03:42;22.40;;;9.47;;
5543;SDS011;2795;47.652;13.128;2022-12-07T05:06:09;20.50;;;9.37;;
5543;SDS011;2795;47.652;13.128;2022-12-07T05:08:39;20.40;;;8.63;;
5543;SDS011;2795;47.652;13.128;2022-12-07T05:11:06;23.73;;;8.90;;
5543;SDS011;2795;47.652;13.128;2022-12-07T05:13:33;24.20;;;8.40;;
5543;SDS011;2795;47.652;13.128;2022-12-07T05:15:59;23.47;;;9.07;;
5543;SDS011;2795;47.652;13.128;2022-12-07T05:18:26;44.13;;;10.97;;
5543;SDS011;2795;47.652;13.128;2022-12-07T05:20:53;25.00;;;8.77;;
5543;SDS011;2795;47.652;13.128;2022-12-07T05:23:19;18.83;;;7.83;;
5543;SDS011;2795;47.652;13.128;2022-12-07T05:25:46;99.90;;;30.87;;
5543;SDS011;2795;47.652;13.128;2022-12-07T05:28:13;242.60;;;79.90;;
5543;SDS011;2795;47.652;13.128;2022-12-07T05:30:39;125.17;;;42.47;;
5543;SDS011;2795;47.652;13.128;2022-12-07T05:33:06;94.97;;;37.50;;
5543;SDS011;2795;47.652;13.128;2022-12-07T05:35:32;70.40;;;31.50;;
5543;SDS011;2795;47.652;13.128;2022-12-07T05:37:59;42.67;;;19.13;;
5543;SDS011;2795;47.652;13.128;2022-12-07T05:40:25;38.80;;;19.13;;
5543;SDS011;2795;47.652;13.128;2022-12-07T05:42:52;24.33;;;10.10;;
5543;SDS011;2795;47.652;13.128;2022-12-07T05:45:18;36.63;;;13.00;;
5543;SDS011;2795;47.652;13.128;2022-12-07T05:47:45;44.63;;;18.80;;
5543;SDS011;2795;47.652;13.128;2022-12-07T05:50:11;29.47;;;14.30;;
5543;SDS011;2795;47.652;13.128;2022-12-07T05:52:38;61.73;;;25.20;;
5543;SDS011;2795;47.652;13.128;2022-12-07T05:55:05;48.80;;;19.50;;
5543;SDS011;2795;47.652;13.128;2022-12-07T05:57:33;41.73;;;18.40;;
5543;SDS011;2795;47.652;13.128;2022-12-07T05:59:59;30.63;;;15.50;;
5543;SDS011;2795;47.652;13.128;2022-12-07T06:02:26;39.90;;;18.10;;
5543;SDS011;2795;47.652;13.128;2022-12-07T06:04:54;41.53;;;20.80;;
5543;SDS011;2795;47.652;13.128;2022-12-07T06:07:20;25.90;;;13.90;;
5543;SDS011;2795;47.652;13.128;2022-12-07T06:09:47;34.23;;;14.70;;
5543;SDS011;2795;47.652;13.128;2022-12-07T06:12:14;23.20;;;10.20;;
5543;SDS011;2795;47.652;13.128;2022-12-07T06:15:00;19.83;;;10.93;;
5543;SDS011;2795;47.652;13.128;2022-12-07T06:17:26;22.87;;;9.60;;
5543;SDS011;2795;47.652;13.128;2022-12-07T06:19:53;22.47;;;9.50;;
5543;SDS011;2795;47.652;13.128;2022-12-07T06:22:19;17.33;;;9.00;;
5543;SDS011;2795;47.652;13.128;2022-12-07T06:24:46;23.37;;;9.37;;
5543;SDS011;2795;47.652;13.128;2022-12-07T06:27:12;23.57;;;10.03;;
5543;SDS011;2795;47.652;13.128;2022-12-07T06:29:39;30.97;;;11.63;;
5543;SDS011;2795;47.652;13.128;2022-12-07T06:32:06;24.90;;;10.47;;
5543;SDS011;2795;47.652;13.128;2022-12-07T06:34:32;26.23;;;12.53;;
5543;SDS011;2795;47.652;13.128;2022-12-07T06:36:59;25.77;;;13.53;;
5543;SDS011;2795;47.652;13.128;2022-12-07T06:39:26;31.37;;;13.03;;
5543;SDS011;2795;47.652;13.128;2022-12-07T06:41:54;20.87;;;10.37;;
5543;SDS011;2795;47.652;13.128;2022-12-07T06:44:21;21.13;;;10.30;;
5543;SDS011;2795;47.652;13.128;2022-12-07T06:46:48;22.30;;;10.17;;
5543;SDS011;2795;47.652;13.128;2022-12-07T06:49:15;25.40;;;9.37;;
5543;SDS011;2795;47.652;13.128;2022-12-07T06:51:42;28.77;;;9.87;;
5543;SDS011;2795;47.652;13.128;2022-12-07T06:54:10;18.73;;;8.60;;
5543;SDS011;2795;47.652;13.128;2022-12-07T06:56:37;23.10;;;10.00;;
5543;SDS011;2795;47.652;13.128;2022-12-07T06:59:04;21.63;;;9.60;;
5543;SDS011;2795;47.652;13.128;2022-12-07T07:01:33;22.90;;;9.57;;
5543;SDS011;2795;47.652;13.128;2022-12-07T07:04:00;18.30;;;10.07;;
5543;SDS011;2795;47.652;13.128;2022-12-07T07:06:27;20.13;;;9.53;;
5543;SDS011;2795;47.652;13.128;2022-12-07T07:08:54;20.90;;;9.97;;
5543;SDS011;2795;47.652;13.128;2022-12-07T07:11:20;23.13;;;9.90;;
5543;SDS011;2795;47.652;13.128;2022-12-07T07:13:47;21.47;;;9.80;;
5543;SDS011;2795;47.652;13.128;2022-12-07T07:16:13;18.27;;;9.13;;
5543;SDS011;2795;47.652;13.128;2022-12-07T07:18:40;25.60;;;10.60;;
5543;SDS011;2795;47.652;13.128;2022-12-07T07:21:07;29.13;;;10.10;;
5543;SDS011;2795;47.652;13.128;2022-12-07T07:23:33;19.83;;;9.53;;
5543;SDS011;2795;47.652;13.128;2022-12-07T07:26:00;21.10;;;9.77;;
5543;SDS011;2795;47.652;13.128;2022-12-07T07:28:26;26.27;;;10.47;;
5543;SDS011;2795;47.652;13.128;2022-12-07T07:30:53;21.43;;;9.83;;
5543;SDS011;2795;47.652;13.128;2022-12-07T07:33:20;19.50;;;9.30;;
5543;SDS011;2795;47.652;13.128;2022-12-07T07:35:46;20.43;;;9.40;;
5543;SDS011;2795;47.652;13.128;2022-12-07T07:38:13;20.37;;;9.57;;
5543;SDS011;2795;47.652;13.128;2022-12-07T07:40:39;24.07;;;9.63;;
5543;SDS011;2795;47.652;13.128;2022-12-07T07:43:06;20.50;;;9.83;;
5543;SDS011;2795;47.652;13.128;2022-12-07T07:45:32;22.67;;;10.20;;
5543;SDS011;2795;47.652;13.128;2022-12-07T07:47:59;20.93;;;10.00;;
5543;SDS011;2795;47.652;13.128;2022-12-07T07:50:26;24.10;;;10.07;;
5543;SDS011;2795;47.652;13.128;2022-12-07T07:52:52;25.30;;;9.93;;
5543;SDS011;2795;47.652;13.128;2022-12-07T07:55:19;19.47;;;9.00;;
5543;SDS011;2795;47.652;13.128;2022-12-07T07:57:46;25.90;;;9.37;;
5543;SDS011;2795;47.652;13.128;2022-12-07T08:00:19;21.43;;;9.27;;
5543;SDS011;2795;47.652;13.128;2022-12-07T08:02:46;20.63;;;9.57;;
5543;SDS011;2795;47.652;13.128;2022-12-07T08:05:13;24.70;;;10.13;;
5543;SDS011;2795;47.652;13.128;2022-12-07T08:07:40;22.57;;;9.40;;
5543;SDS011;2795;47.652;13.128;2022-12-07T08:10:07;22.17;;;9.57;;
5543;SDS011;2795;47.652;13.128;2022-12-07T08:12:37;15.40;;;8.13;;
5543;SDS011;2795;47.652;13.128;2022-12-07T08:15:26;18.53;;;9.60;;
5543;SDS011;2795;47.652;13.128;2022-12-07T08:17:54;26.20;;;10.70;;
5543;SDS011;2795;47.652;13.128;2022-12-07T08:20:21;28.30;;;10.30;;
5543;SDS011;2795;47.652;13.128;2022-12-07T08:22:49;22.47;;;10.03;;
5543;SDS011;2795;47.652;13.128;2022-12-07T08:25:16;18.97;;;9.00;;
5543;SDS011;2795;47.652;13.128;2022-12-07T08:27:43;22.03;;;10.17;;
5543;SDS011;2795;47.652;13.128;2022-12-07T08:30:09;26.90;;;10.50;;
5543;SDS011;2795;47.652;13.128;2022-12-07T08:32:36;18.73;;;9.23;;
5543;SDS011;2795;47.652;13.128;2022-12-07T08:35:03;16.80;;;9.77;;
5543;SDS011;2795;47.652;13.128;2022-12-07T08:37:29;25.73;;;10.70;;
5543;SDS011;2795;47.652;13.128;2022-12-07T08:39:57;19.60;;;9.80;;
5543;SDS011;2795;47.652;13.128;2022-12-07T08:42:24;25.60;;;10.30;;
5543;SDS011;2795;47.652;13.128;2022-12-07T08:44:56;18.43;;;9.13;;
5543;SDS011;2795;47.652;13.128;2022-12-07T08:47:23;18.77;;;9.77;;
5543;SDS011;2795;47.652;13.128;2022-12-07T08:49:50;28.63;;;11.67;;
5543;SDS011;2795;47.652;13.128;2022-12-07T08:52:17;31.63;;;12.30;;
5543;SDS011;2795;47.652;13.128;2022-12-07T08:54:44;25.33;;;11.67;;
5543;SDS011;2795;47.652;13.128;2022-12-07T08:57:11;20.80;;;10.13;;
5543;SDS011;2795;47.652;13.128;2022-12-07T08:59:38;20.23;;;9.00;;
5543;SDS011;2795;47.652;13.128;2022-12-07T09:02:05;25.40;;;10.57;;
5543;SDS011;2795;47.652;13.128;2022-12-07T09:04:32;20.80;;;10.13;;
5543;SDS011;2795;47.652;13.128;2022-12-07T09:06:58;31.00;;;13.00;;
5543;SDS011;2795;47.652;13.128;2022-12-07T09:09:25;34.33;;;12.43;;
5543;SDS011;2795;47.652;13.128;2022-12-07T09:11:52;54.37;;;17.17;;
5543;SDS011;2795;47.652;13.128;2022-12-07T09:14:19;58.67;;;21.07;;
5543;SDS011;2795;47.652;13.128;2022-12-07T09:16:45;20.80;;;10.33;;
5543;SDS011;2795;47.652;13.128;2022-12-07T09:19:12;47.60;;;17.00;;
5543;SDS011;2795;47.652;13.128;2022-12-07T09:21:39;26.47;;;12.60;;
5543;SDS011;2795;47.652;13.128;2022-12-07T09:24:05;21.57;;;11.50;;
5543;SDS011;2795;47.652;13.128;2022-12-07T09:26:32;26.13;;;11.73;;
5543;SDS011;2795;47.652;13.128;2022-12-07T09:28:58;23.00;;;9.90;;
5543;SDS011;2795;47.652;13.128;2022-12-07T09:31:25;25.70;;;11.27;;
5543;SDS011;2795;47.652;13.128;2022-12-07T09:33:59;24.87;;;10.63;;
5543;SDS011;2795;47.652;13.128;2022-12-07T09:36:26;34.67;;;12.30;;
5543;SDS011;2795;47.652;13.128;2022-12-07T09:38:54;22.33;;;10.93;;
5543;SDS011;2795;47.652;13.128;2022-12-07T09:41:21;28.03;;;10.70;;
5543;SDS011;2795;47.652;13.128;2022-12-07T09:43:49;29.67;;;13.60;;
5543;SDS011;2795;47.652;13.128;2022-12-07T09:46:16;23.47;;;11.53;;
5543;SDS011;2795;47.652;13.128;2022-12-07T09:48:45;25.20;;;11.57;;
5543;SDS011;2795;47.652;13.128;2022-12-07T09:51:14;19.47;;;10.00;;
5543;SDS011;2795;47.652;13.128;2022-12-07T09:53:50;20.07;;;10.50;;
5543;SDS011;2795;47.652;13.128;2022-12-07T09:56:18;20.50;;;9.80;;
5543;SDS011;2795;47.652;13.128;2022-12-07T09:58:46;35.53;;;12.63;;
5543;SDS011;2795;47.652;13.128;2022-12-07T10:01:19;20.37;;;10.00;;
5543;SDS011;2795;47.652;13.128;2022-12-07T10:03:54;24.07;;;11.70;;
5543;SDS011;2795;47.652;13.128;2022-12-07T10:06:21;19.97;;;9.83;;
5543;SDS011;2795;47.652;13.128;2022-12-07T10:08:48;20.80;;;9.87;;
5543;SDS011;2795;47.652;13.128;2022-12-07T10:11:15;20.00;;;10.23;;
5543;SDS011;2795;47.652;13.128;2022-12-07T10:13:49;18.70;;;10.00;;
5543;SDS011;2795;47.652;13.128;2022-12-07T10:22:01;26.13;;;11.47;;
5543;SDS011;2795;47.652;13.128;2022-12-07T10:24:35;29.33;;;11.70;;
5543;SDS011;2795;47.652;13.128;2022-12-07T10:27:09;26.63;;;11.20;;
5543;SDS011;2795;47.652;13.128;2022-12-07T10:29:47;28.20;;;12.03;;
5543;SDS011;2795;47.652;13.128;2022-12-07T10:34:43;26.80;;;12.00;;
5543;SDS011;2795;47.652;13.128;2022-12-07T10:37:18;30.87;;;12.87;;
5543;SDS011;2795;47.652;13.128;2022-12-07T10:39:47;26.00;;;12.63;;
5543;SDS011;2795;47.652;13.128;2022-12-07T10:42:21;26.93;;;11.90;;
5543;SDS011;2795;47.652;13.128;2022-12-07T10:47:48;27.53;;;12.40;;
5543;SDS011;2795;47.652;13.128;2022-12-07T10:50:29;35.60;;;12.87;;
5543;SDS011;2795;47.652;13.128;2022-12-07T10:53:00;31.80;;;12.13;;
5543;SDS011;2795;47.652;13.128;2022-12-07T10:55:34;35.50;;;13.30;;
5543;SDS011;2795;47.652;13.128;2022-12-07T10:58:21;31.57;;;12.50;;
5543;SDS011;2795;47.652;13.128;2022-12-07T11:03:35;47.13;;;15.77;;
5543;SDS011;2795;47.652;13.128;2022-12-07T11:06:10;26.17;;;12.33;;
5543;SDS011;2795;47.652;13.128;2022-12-07T11:09:00;29.43;;;11.93;;
5543;SDS011;2795;47.652;13.128;2022-12-07T11:11:36;39.80;;;14.70;;
5543;SDS011;2795;47.652;13.128;2022-12-07T11:14:15;27.60;;;11.10;;
5543;SDS011;2795;47.652;13.128;2022-12-07T11:17:14;35.60;;;12.57;;
5543;SDS011;2795;47.652;13.128;2022-12-07T11:20:05;29.53;;;11.07;;
5543;SDS011;2795;47.652;13.128;2022-12-07T11:22:45;31.83;;;12.10;;
5543;SDS011;2795;47.652;13.128;2022-12-07T11:33:59;21.83;;;10.37;;
5543;SDS011;2795;47.652;13.128;2022-12-07T11:36:37;25.27;;;11.20;;
5543;SDS011;2795;47.652;13.128;2022-12-07T11:42:04;26.87;;;10.67;;
5543;SDS011;2795;47.652;13.128;2022-12-07T11:50:47;29.07;;;12.77;;
5543;SDS011;2795;47.652;13.128;2022-12-07T11:53:17;24.63;;;12.20;;
5543;SDS011;2795;47.652;13.128;2022-12-07T11:55:59;24.10;;;11.33;;
5543;SDS011;2795;47.652;13.128;2022-12-07T12:03:44;29.63;;;12.73;;
5543;SDS011;2795;47.652;13.128;2022-12-07T12:06:18;26.03;;;11.63;;
5543;SDS011;2795;47.652;13.128;2022-12-07T12:08:47;23.57;;;11.13;;
5543;SDS011;2795;47.652;13.128;2022-12-07T12:14:48;30.43;;;11.70;;
5543;SDS011;2795;47.652;13.128;2022-12-07T12:22:28;29.77;;;12.40;;
5543;SDS011;2795;47.652;13.128;2022-12-07T12:24:59;37.00;;;13.13;;
5543;SDS011;2795;47.652;13.128;2022-12-07T12:27:31;30.77;;;13.27;;
5543;SDS011;2795;47.652;13.128;2022-12-07T12:30:00;27.37;;;10.57;;
5543;SDS011;2795;47.652;13.128;2022-12-07T12:32:34;27.70;;;10.73;;
5543;SDS011;2795;47.652;13.128;2022-12-07T12:38:26;15.33;;;8.17;;
5543;SDS011;2795;47.652;13.128;2022-12-07T12:40:54;20.37;;;9.20;;
5543;SDS011;2795;47.652;13.128;2022-12-07T12:44:22;16.50;;;8.87;;
5543;SDS011;2795;47.652;13.128;2022-12-07T12:51:45;15.13;;;7.87;;
5543;SDS011;2795;47.652;13.128;2022-12-07T12:54:25;25.80;;;11.23;;
5543;SDS011;2795;47.652;13.128;2022-12-07T12:59:36;18.33;;;8.97;;
5543;SDS011;2795;47.652;13.128;2022-12-07T13:02:14;21.60;;;8.70;;
5543;SDS011;2795;47.652;13.128;2022-12-07T13:23:18;29.00;;;10.90;;
5543;SDS011;2795;47.652;13.128;2022-12-07T13:25:51;19.47;;;8.57;;
5543;SDS011;2795;47.652;13.128;2022-12-07T13:28:22;21.23;;;8.33;;
5543;SDS011;2795;47.652;13.128;2022-12-07T13:33:25;22.37;;;7.70;;
5543;SDS011;2795;47.652;13.128;2022-12-07T13:35:54;14.60;;;8.50;;
5543;SDS011;2795;47.652;13.128;2022-12-07T13:38:47;18.30;;;7.80;;
5543;SDS011;2795;47.652;13.128;2022-12-07T13:41:16;15.93;;;6.90;;
5543;SDS011;2795;47.652;13.128;2022-12-07T13:46:35;13.33;;;6.77;;
5543;SDS011;2795;47.652;13.128;2022-12-07T13:49:16;14.43;;;6.57;;
5543;SDS011;2795;47.652;13.128;2022-12-07T13:51:44;15.20;;;7.27;;
5543;SDS011;2795;47.652;13.128;2022-12-07T13:54:11;20.87;;;6.70;;
5543;SDS011;2795;47.652;13.128;2022-12-07T13:56:39;18.03;;;7.07;;
5543;SDS011;2795;47.652;13.128;2022-12-07T13:59:25;20.33;;;7.70;;
5543;SDS011;2795;47.652;13.128;2022-12-07T14:01:53;21.00;;;7.13;;
5543;SDS011;2795;47.652;13.128;2022-12-07T14:04:34;17.23;;;7.20;;
5543;SDS011;2795;47.652;13.128;2022-12-07T14:10:25;15.30;;;7.73;;
5543;SDS011;2795;47.652;13.128;2022-12-07T14:13:00;19.50;;;7.90;;
5543;SDS011;2795;47.652;13.128;2022-12-07T14:15:29;16.10;;;6.43;;
5543;SDS011;2795;47.652;13.128;2022-12-07T14:17:58;18.40;;;7.37;;
5543;SDS011;2795;47.652;13.128;2022-12-07T14:20:34;20.57;;;7.17;;
5543;SDS011;2795;47.652;13.128;2022-12-07T14:23:03;23.40;;;7.73;;
5543;SDS011;2795;47.652;13.128;2022-12-07T14:25:49;16.23;;;6.80;;
5543;SDS011;2795;47.652;13.128;2022-12-07T14:28:27;16.70;;;6.90;;
5543;SDS011;2795;47.652;13.128;2022-12-07T14:30:54;14.93;;;6.73;;
5543;SDS011;2795;47.652;13.128;2022-12-07T14:33:21;16.27;;;6.90;;
5543;SDS011;2795;47.652;13.128;2022-12-07T14:35:49;15.13;;;6.67;;
5543;SDS011;2795;47.652;13.128;2022-12-07T14:38:15;11.53;;;6.43;;
5543;SDS011;2795;47.652;13.128;2022-12-07T14:40:44;15.30;;;6.23;;
5543;SDS011;2795;47.652;13.128;2022-12-07T14:43:12;13.03;;;6.07;;
5543;SDS011;2795;47.652;13.128;2022-12-07T14:45:39;22.40;;;6.90;;
5543;SDS011;2795;47.652;13.128;2022-12-07T14:48:13;16.37;;;7.10;;
5543;SDS011;2795;47.652;13.128;2022-12-07T14:51:01;30.77;;;8.10;;
5543;SDS011;2795;47.652;13.128;2022-12-07T14:53:48;15.33;;;7.93;;
5543;SDS011;2795;47.652;13.128;2022-12-07T14:56:22;22.47;;;9.50;;
5543;SDS011;2795;47.652;13.128;2022-12-07T14:58:49;20.37;;;9.40;;
5543;SDS011;2795;47.652;13.128;2022-12-07T15:01:16;20.20;;;9.00;;
5543;SDS011;2795;47.652;13.128;2022-12-07T15:03:42;19.97;;;8.40;;
5543;SDS011;2795;47.652;13.128;2022-12-07T15:06:16;21.43;;;9.20;;
5543;SDS011;2795;47.652;13.128;2022-12-07T15:08:43;20.73;;;8.20;;
5543;SDS011;2795;47.652;13.128;2022-12-07T15:11:13;23.13;;;8.20;;
5543;SDS011;2795;47.652;13.128;2022-12-07T15:13:41;18.03;;;7.37;;
5543;SDS011;2795;47.652;13.128;2022-12-07T15:16:26;18.43;;;8.47;;
5543;SDS011;2795;47.652;13.128;2022-12-07T15:19:02;17.37;;;9.20;;
5543;SDS011;2795;47.652;13.128;2022-12-07T15:21:48;23.73;;;8.93;;
5543;SDS011;2795;47.652;13.128;2022-12-07T15:24:15;22.80;;;9.23;;
5543;SDS011;2795;47.652;13.128;2022-12-07T15:26:42;38.87;;;11.33;;
5543;SDS011;2795;47.652;13.128;2022-12-07T15:29:09;26.43;;;8.10;;
5543;SDS011;2795;47.652;13.128;2022-12-07T15:31:36;24.50;;;9.43;;
5543;SDS011;2795;47.652;13.128;2022-12-07T15:34:23;19.10;;;9.00;;
5543;SDS011;2795;47.652;13.128;2022-12-07T15:37:04;21.00;;;8.90;;
5543;SDS011;2795;47.652;13.128;2022-12-07T15:39:31;15.93;;;9.00;;
5543;SDS011;2795;47.652;13.128;2022-12-07T15:41:57;19.67;;;8.30;;
5543;SDS011;2795;47.652;13.128;2022-12-07T15:44:24;17.70;;;8.47;;
5543;SDS011;2795;47.652;13.128;2022-12-07T15:47:09;25.63;;;9.90;;
5543;SDS011;2795;47.652;13.128;2022-12-07T15:49:36;28.20;;;9.30;;
5543;SDS011;2795;47.652;13.128;2022-12-07T15:52:02;20.30;;;9.10;;
5543;SDS011;2795;47.652;13.128;2022-12-07T15:54:29;14.77;;;7.23;;
5543;SDS011;2795;47.652;13.128;2022-12-07T15:56:56;16.20;;;7.40;;
5543;SDS011;2795;47.652;13.128;2022-12-07T15:59:23;17.70;;;7.43;;
5543;SDS011;2795;47.652;13.128;2022-12-07T16:01:50;22.20;;;7.50;;
5543;SDS011;2795;47.652;13.128;2022-12-07T16:04:17;12.40;;;5.70;;
5543;SDS011;2795;47.652;13.128;2022-12-07T16:06:43;21.33;;;6.00;;
5543;SDS011;2795;47.652;13.128;2022-12-07T16:09:10;16.10;;;5.50;;
5543;SDS011;2795;47.652;13.128;2022-12-07T16:11:37;18.73;;;6.43;;
5543;SDS011;2795;47.652;13.128;2022-12-07T16:14:03;10.70;;;5.20;;
5543;SDS011;2795;47.652;13.128;2022-12-07T16:16:30;12.23;;;5.73;;
5543;SDS011;2795;47.652;13.128;2022-12-07T16:18:57;13.73;;;5.07;;
5543;SDS011;2795;47.652;13.128;2022-12-07T16:21:24;15.10;;;5.73;;
5543;SDS011;2795;47.652;13.128;2022-12-07T16:23:51;15.63;;;6.03;;
5543;SDS011;2795;47.652;13.128;2022-12-07T16:26:19;16.73;;;5.70;;
5543;SDS011;2795;47.652;13.128;2022-12-07T16:28:50;14.50;;;5.80;;
5543;SDS011;2795;47.652;13.128;2022-12-07T16:31:19;16.10;;;5.20;;
5543;SDS011;2795;47.652;13.128;2022-12-07T16:33:47;15.90;;;5.70;;
5543;SDS011;2795;47.652;13.128;2022-12-07T16:36:15;26.83;;;6.83;;
5543;SDS011;2795;47.652;13.128;2022-12-07T16:39:02;23.50;;;6.80;;
5543;SDS011;2795;47.652;13.128;2022-12-07T16:41:30;15.07;;;6.00;;
5543;SDS011;2795;47.652;13.128;2022-12-07T16:43:58;10.17;;;5.70;;
5543;SDS011;2795;47.652;13.128;2022-12-07T16:46:29;19.97;;;5.50;;
5543;SDS011;2795;47.652;13.128;2022-12-07T16:48:56;14.17;;;5.40;;